Time;durP1;ratioP1;P1;durP2;ratioP2;P2;SDS_P1;SDS_P2;PMS_P1;PMS_P2;Temp;Humidity;BMP_temperature;BMP_pressure;BME280_temperature;BME280_humidity;BME280_pressure;Samples;Min_cycle;Max_cycle;Signal;HPM_P1;HPM_P2
2023/12/31 00:02:11;;;;;;;13.13;2.33;;;20.30;71.00;;;;;;5015375;28;20050;-79
2023/12/31 00:04:38;;;;;;;9.82;2.45;;;20.40;71.10;;;;;;5014329;28;20108;-85
2023/12/31 00:07:06;;;;;;;13.60;2.35;;;20.40;71.40;;;;;;5015912;28;20448;-79
2023/12/31 00:09:36;;;;;;;12.60;2.95;;;20.40;71.40;;;;;;5015009;28;20392;-92
2023/12/31 00:12:04;;;;;;;16.00;2.35;;;20.40;71.50;;;;;;5015938;28;20029;-84
2023/12/31 00:14:31;;;;;;;11.60;2.22;;;20.40;70.80;;;;;;5016073;28;20029;-79
2023/12/31 00:16:58;;;;;;;12.23;2.00;;;20.40;70.50;;;;;;5015649;28;20033;-80
2023/12/31 00:19:26;;;;;;;9.02;2.30;;;20.40;71.20;;;;;;5014821;28;20115;-80
2023/12/31 00:21:53;;;;;;;7.82;1.98;;;20.40;71.50;;;;;;5015156;28;20425;-78
2023/12/31 00:24:21;;;;;;;10.88;2.28;;;20.40;71.70;;;;;;5014663;28;20482;-83
2023/12/31 00:26:48;;;;;;;14.10;2.10;;;20.50;71.50;;;;;;5015482;28;20046;-78
2023/12/31 00:29:16;;;;;;;13.50;2.17;;;20.50;71.30;;;;;;5021321;28;20083;-79
2023/12/31 00:31:43;;;;;;;12.27;2.55;;;20.60;71.30;;;;;;5025938;28;20052;-81
2023/12/31 00:34:11;;;;;;;10.75;2.53;;;20.50;70.40;;;;;;5015088;28;20525;-79
2023/12/31 00:36:39;;;;;;;12.32;2.42;;;20.60;70.90;;;;;;5015345;28;20080;-79
2023/12/31 00:39:06;;;;;;;6.38;2.05;;;20.60;70.50;;;;;;5014946;28;20030;-79
2023/12/31 00:41:34;;;;;;;13.57;2.88;;;20.70;70.40;;;;;;5018054;28;20060;-77
2023/12/31 00:44:01;;;;;;;15.73;2.88;;;20.70;70.30;;;;;;5015013;28;20025;-79
2023/12/31 00:46:29;;;;;;;8.73;2.33;;;20.70;70.40;;;;;;5014433;28;20042;-78
2023/12/31 00:48:56;;;;;;;18.05;2.25;;;20.80;71.10;;;;;;5016703;28;20362;-92
2023/12/31 00:51:24;;;;;;;17.13;3.05;;;20.80;70.60;;;;;;5013237;28;20017;-80
2023/12/31 00:53:51;;;;;;;15.77;2.55;;;20.80;70.30;;;;;;5012236;28;20056;-78
2023/12/31 00:56:18;;;;;;;10.43;2.30;;;20.80;70.00;;;;;;5010025;28;20125;-78
2023/12/31 00:58:46;;;;;;;13.88;2.65;;;20.80;70.60;;;;;;5013270;28;20045;-78
2023/12/31 01:01:13;;;;;;;17.40;2.53;;;20.80;70.40;;;;;;5014528;28;20540;-84
2023/12/31 01:03:40;;;;;;;15.40;2.60;;;20.80;70.40;;;;;;5013900;28;20026;-79
2023/12/31 01:06:08;;;;;;;10.95;2.40;;;20.80;70.50;;;;;;5018963;28;20054;-78
2023/12/31 01:08:36;;;;;;;13.48;2.47;;;20.80;71.00;;;;;;5013514;28;20030;-78
2023/12/31 01:11:03;;;;;;;14.93;2.30;;;20.80;71.40;;;;;;5031259;28;20064;-90
2023/12/31 01:13:32;;;;;;;12.27;1.90;;;20.80;71.00;;;;;;5015381;28;20029;-78
2023/12/31 01:16:00;;;;;;;10.88;2.20;;;20.80;70.80;;;;;;5013093;28;20033;-91
2023/12/31 01:18:27;;;;;;;16.63;2.33;;;20.80;70.30;;;;;;5014200;28;20022;-84
2023/12/31 01:20:55;;;;;;;14.80;2.90;;;20.80;70.40;;;;;;5016346;28;20451;-89
2023/12/31 01:23:23;;;;;;;22.70;2.65;;;20.80;70.60;;;;;;5015643;28;20033;-84
2023/12/31 01:25:50;;;;;;;15.65;1.95;;;20.80;70.60;;;;;;5011055;28;20489;-79
2023/12/31 01:28:18;;;;;;;12.65;2.78;;;20.80;70.90;;;;;;5013859;28;20437;-82
2023/12/31 01:30:46;;;;;;;9.85;2.33;;;20.90;70.50;;;;;;5013610;28;20030;-81
2023/12/31 01:33:14;;;;;;;11.15;2.03;;;20.90;70.60;;;;;;5021817;28;20029;-79
2023/12/31 01:35:42;;;;;;;10.50;2.10;;;20.90;70.70;;;;;;5017565;28;20024;-81
2023/12/31 01:38:09;;;;;;;9.88;1.85;;;20.90;70.50;;;;;;5010828;28;20396;-89
2023/12/31 01:40:36;;;;;;;6.43;1.90;;;21.00;70.80;;;;;;5021723;28;20026;-88
2023/12/31 01:43:04;;;;;;;17.38;2.70;;;21.00;70.90;;;;;;5023237;28;20052;-79
2023/12/31 01:45:31;;;;;;;14.35;2.45;;;21.00;70.00;;;;;;5028067;28;20021;-86
2023/12/31 01:47:59;;;;;;;11.27;2.20;;;21.00;70.10;;;;;;5033982;28;20038;-78
2023/12/31 01:50:28;;;;;;;9.93;2.28;;;21.00;70.60;;;;;;5021032;28;20113;-89
2023/12/31 01:52:56;;;;;;;8.88;2.05;;;21.00;70.80;;;;;;5011292;28;20034;-90
2023/12/31 01:55:24;;;;;;;12.65;2.22;;;21.00;70.50;;;;;;5007041;28;20025;-87
2023/12/31 01:57:53;;;;;;;7.03;2.22;;;21.00;70.00;;;;;;5026598;28;20029;-87
2023/12/31 02:00:21;;;;;;;9.70;2.28;;;21.00;70.20;;;;;;5012668;28;20030;-91
2023/12/31 02:02:49;;;;;;;15.07;2.53;;;21.00;70.10;;;;;;5012397;28;20034;-79
2023/12/31 02:05:16;;;;;;;14.43;2.30;;;21.00;69.30;;;;;;5013768;28;20022;-79
2023/12/31 02:07:45;;;;;;;15.88;3.40;;;21.00;69.70;;;;;;5013143;28;20046;-84
2023/12/31 02:10:13;;;;;;;13.63;2.58;;;21.00;69.00;;;;;;5013643;28;20483;-85
2023/12/31 02:12:41;;;;;;;11.75;2.60;;;21.00;69.50;;;;;;5013338;28;20041;-86
2023/12/31 02:15:09;;;;;;;13.50;2.72;;;21.10;69.40;;;;;;5013314;28;20057;-87
2023/12/31 02:17:37;;;;;;;9.90;2.58;;;21.00;69.20;;;;;;5007132;28;20025;-83
2023/12/31 02:20:06;;;;;;;14.02;2.78;;;21.00;68.70;;;;;;5019367;28;20025;-84
2023/12/31 02:22:34;;;;;;;10.10;2.53;;;21.00;69.10;;;;;;5011391;28;20037;-83
2023/12/31 02:25:06;;;;;;;11.27;2.20;;;21.00;68.90;;;;;;5010563;28;20171;-83
2023/12/31 02:27:33;;;;;;;12.98;2.58;;;21.00;68.70;;;;;;5008351;28;20549;-92
2023/12/31 02:30:00;;;;;;;10.40;2.30;;;21.00;68.70;;;;;;5001588;28;20049;-80
2023/12/31 02:32:28;;;;;;;14.73;2.53;;;21.00;68.40;;;;;;4997116;28;20018;-78
2023/12/31 02:34:56;;;;;;;15.32;2.50;;;21.10;68.60;;;;;;5028365;28;20038;-79
2023/12/31 02:37:23;;;;;;;8.98;1.90;;;21.10;68.50;;;;;;5011734;28;20014;-83
2023/12/31 02:39:50;;;;;;;9.20;2.03;;;21.10;68.40;;;;;;5012245;28;20030;-79
2023/12/31 02:42:18;;;;;;;11.45;1.80;;;21.10;68.30;;;;;;5013371;28;20045;-79
2023/12/31 02:44:45;;;;;;;10.30;2.10;;;21.10;68.70;;;;;;5013119;28;20030;-78
2023/12/31 02:47:13;;;;;;;12.63;2.30;;;21.20;68.10;;;;;;5012325;28;20481;-87
2023/12/31 02:49:41;;;;;;;17.50;3.10;;;21.20;67.80;;;;;;5011632;28;20030;-87
2023/12/31 02:52:11;;;;;;;12.93;2.35;;;21.20;67.60;;;;;;5006022;28;21247;-79
2023/12/31 02:54:39;;;;;;;14.55;2.60;;;21.20;67.80;;;;;;5032669;28;20030;-79
2023/12/31 02:57:07;;;;;;;10.40;2.50;;;21.30;67.70;;;;;;5020016;28;20076;-79
2023/12/31 02:59:35;;;;;;;10.93;2.22;;;21.20;67.70;;;;;;5013117;28;20274;-78
2023/12/31 03:02:02;;;;;;;13.45;2.50;;;21.20;67.70;;;;;;5011851;28;20385;-79
2023/12/31 03:04:30;;;;;;;9.23;2.72;;;21.20;68.10;;;;;;5022505;28;20064;-91
2023/12/31 03:06:58;;;;;;;9.73;2.17;;;21.20;68.00;;;;;;5012833;28;20302;-91
2023/12/31 03:09:26;;;;;;;9.73;2.17;;;21.30;68.20;;;;;;5015716;28;20064;-91
2023/12/31 03:11:53;;;;;;;8.80;2.40;;;21.30;67.90;;;;;;5033170;28;20022;-90
2023/12/31 03:14:20;;;;;;;10.73;2.03;;;21.30;68.10;;;;;;5015855;28;20473;-89
2023/12/31 03:16:48;;;;;;;11.05;2.15;;;21.30;68.30;;;;;;5017401;28;20465;-91
2023/12/31 03:19:17;;;;;;;11.55;2.78;;;21.30;68.60;;;;;;5017613;28;20716;-91
2023/12/31 03:21:44;;;;;;;12.52;2.40;;;21.30;68.40;;;;;;5017139;28;20026;-90
2023/12/31 03:24:12;;;;;;;7.97;2.00;;;21.30;68.40;;;;;;5009110;28;20041;-87
2023/12/31 03:26:39;;;;;;;16.20;2.55;;;21.30;68.70;;;;;;5017228;28;20022;-90
2023/12/31 03:29:06;;;;;;;10.85;1.85;;;21.30;68.20;;;;;;5017542;28;20102;-89
2023/12/31 03:31:34;;;;;;;12.82;2.70;;;21.30;68.60;;;;;;5015446;28;20412;-84
2023/12/31 03:34:01;;;;;;;13.38;2.40;;;21.30;68.70;;;;;;5014744;28;20033;-80
2023/12/31 03:36:28;;;;;;;10.45;2.38;;;21.30;68.40;;;;;;4996549;28;20033;-78
2023/12/31 03:38:56;;;;;;;6.93;1.92;;;21.30;68.60;;;;;;4996801;28;20494;-80
2023/12/31 03:41:24;;;;;;;8.35;2.72;;;21.30;69.00;;;;;;5007704;28;20080;-78
2023/12/31 03:43:51;;;;;;;14.20;2.28;;;21.30;68.90;;;;;;5015970;28;20036;-78
2023/12/31 03:46:20;;;;;;;5.50;1.60;;;21.30;68.40;;;;;;5018717;28;20103;-78
2023/12/31 03:48:47;;;;;;;10.55;1.77;;;21.30;68.80;;;;;;5021057;28;20038;-85
2023/12/31 03:51:15;;;;;;;8.02;1.45;;;21.30;68.50;;;;;;5014713;28;20448;-78
2023/12/31 03:53:43;;;;;;;11.18;2.20;;;21.30;68.90;;;;;;5012842;28;20038;-91
2023/12/31 03:56:10;;;;;;;6.88;1.80;;;21.30;69.20;;;;;;5032056;28;20022;-79
2023/12/31 03:58:37;;;;;;;8.63;1.70;;;21.30;69.20;;;;;;5015327;28;20034;-78
2023/12/31 04:01:07;;;;;;;9.20;1.70;;;21.30;69.40;;;;;;5015368;28;20042;-89
2023/12/31 04:03:34;;;;;;;8.27;1.73;;;21.30;69.50;;;;;;5014889;28;20109;-83
2023/12/31 04:06:02;;;;;;;13.57;2.10;;;21.30;69.80;;;;;;5027454;28;20114;-90
2023/12/31 04:08:30;;;;;;;11.20;2.92;;;21.30;70.10;;;;;;5019647;28;20048;-90
2023/12/31 04:10:57;;;;;;;13.23;2.53;;;21.30;70.10;;;;;;5014337;28;20464;-77
2023/12/31 04:13:27;;;;;;;12.75;2.60;;;21.30;70.00;;;;;;5009102;28;20125;-78
2023/12/31 04:15:54;;;;;;;12.82;2.70;;;21.30;70.10;;;;;;5024422;28;20022;-79
2023/12/31 04:18:22;;;;;;;10.05;1.83;;;21.20;68.80;;;;;;5014541;28;20469;-77
2023/12/31 04:20:49;;;;;;;5.82;1.50;;;21.20;69.40;;;;;;5014710;28;20032;-78
2023/12/31 04:23:17;;;;;;;11.00;2.28;;;21.30;69.60;;;;;;5024991;28;20014;-79
2023/12/31 04:25:44;;;;;;;8.82;2.00;;;21.30;70.00;;;;;;5013652;28;20022;-86
2023/12/31 04:28:11;;;;;;;10.57;1.92;;;21.30;69.70;;;;;;5014546;28;20481;-79
2023/12/31 04:30:40;;;;;;;11.57;2.00;;;21.30;70.00;;;;;;5013361;28;20381;-88
2023/12/31 04:33:07;;;;;;;12.65;2.40;;;21.30;69.80;;;;;;5013628;28;20843;-77
2023/12/31 04:35:35;;;;;;;5.75;1.55;;;21.30;69.30;;;;;;5014412;28;20308;-80
2023/12/31 04:38:02;;;;;;;11.23;1.88;;;21.30;69.30;;;;;;5024375;28;20420;-77
2023/12/31 04:40:30;;;;;;;11.60;2.17;;;21.30;69.40;;;;;;5017573;28;20026;-77
2023/12/31 04:42:57;;;;;;;5.03;1.60;;;21.30;69.00;;;;;;5016929;28;20030;-77
2023/12/31 04:45:24;;;;;;;8.48;2.05;;;21.30;69.30;;;;;;5009275;28;20113;-86
2023/12/31 04:47:52;;;;;;;10.07;1.90;;;21.30;69.50;;;;;;5017309;28;20388;-89
2023/12/31 04:50:19;;;;;;;10.30;2.08;;;21.30;69.60;;;;;;5014541;28;20017;-77
2023/12/31 04:52:49;;;;;;;8.50;1.77;;;21.30;69.50;;;;;;5018885;28;20034;-79
2023/12/31 04:55:17;;;;;;;5.90;1.60;;;21.30;69.30;;;;;;5011859;28;20026;-84
2023/12/31 04:57:44;;;;;;;11.70;1.90;;;21.30;69.50;;;;;;5014947;28;20112;-76
2023/12/31 05:00:12;;;;;;;9.95;1.90;;;21.30;69.40;;;;;;5031220;28;20132;-79
2023/12/31 05:02:40;;;;;;;7.93;2.08;;;21.30;69.30;;;;;;5027662;28;20037;-86
2023/12/31 05:05:07;;;;;;;9.18;1.90;;;21.30;69.30;;;;;;5014408;28;20056;-90
2023/12/31 05:07:35;;;;;;;13.10;2.83;;;21.30;69.50;;;;;;5013619;28;20045;-77
2023/12/31 05:10:04;;;;;;;8.52;2.10;;;21.30;69.40;;;;;;5011797;28;20653;-87
2023/12/31 05:12:32;;;;;;;9.00;2.05;;;21.30;69.60;;;;;;5020493;28;20030;-83
2023/12/31 05:14:59;;;;;;;8.70;2.08;;;21.30;69.80;;;;;;5014167;28;20084;-90
2023/12/31 05:17:26;;;;;;;9.57;2.03;;;21.30;69.60;;;;;;5024900;28;20433;-89
2023/12/31 05:19:55;;;;;;;6.97;1.75;;;21.30;69.80;;;;;;5017999;28;20104;-77
2023/12/31 05:22:23;;;;;;;7.25;1.52;;;21.30;70.00;;;;;;5019209;28;20140;-85
2023/12/31 05:24:50;;;;;;;12.80;2.63;;;21.30;70.10;;;;;;5018460;28;20033;-84
2023/12/31 05:27:19;;;;;;;7.88;2.05;;;21.30;70.10;;;;;;5013531;28;20022;-89
2023/12/31 05:29:46;;;;;;;12.63;2.20;;;21.30;69.90;;;;;;5013126;28;20042;-79
2023/12/31 05:32:15;;;;;;;8.25;2.08;;;21.30;69.80;;;;;;5013466;28;20022;-85
2023/12/31 05:34:42;;;;;;;7.13;1.90;;;21.30;69.80;;;;;;5013605;28;20022;-87
2023/12/31 05:37:10;;;;;;;10.18;2.15;;;21.30;70.00;;;;;;5011743;28;20026;-90
2023/12/31 05:39:38;;;;;;;9.55;2.05;;;21.30;69.80;;;;;;5013928;28;20490;-89
2023/12/31 05:42:06;;;;;;;7.93;1.90;;;21.30;69.20;;;;;;5011248;28;20022;-90
2023/12/31 05:44:33;;;;;;;9.98;2.35;;;21.30;68.90;;;;;;5016350;28;20033;-87
2023/12/31 05:47:00;;;;;;;8.10;1.55;;;21.30;69.30;;;;;;5017145;28;20041;-78
2023/12/31 05:49:28;;;;;;;18.02;2.03;;;21.30;69.50;;;;;;5031236;28;20021;-78
2023/12/31 05:51:55;;;;;;;11.00;2.05;;;21.30;69.50;;;;;;5025905;28;20026;-78
2023/12/31 05:54:22;;;;;;;6.80;1.98;;;21.30;69.70;;;;;;5019969;28;20026;-86
2023/12/31 05:56:50;;;;;;;6.20;1.98;;;21.20;69.60;;;;;;5016646;28;20507;-88
2023/12/31 05:59:18;;;;;;;10.00;1.88;;;21.30;69.80;;;;;;5017383;28;20021;-80
2023/12/31 06:01:49;;;;;;;7.75;2.15;;;21.30;69.60;;;;;;5012673;28;20033;-78
2023/12/31 06:04:16;;;;;;;13.23;2.30;;;21.20;69.60;;;;;;5007293;28;20590;-78
2023/12/31 06:06:43;;;;;;;12.48;3.00;;;21.30;69.70;;;;;;5013025;28;20044;-78
2023/12/31 06:09:11;;;;;;;11.43;2.33;;;21.30;69.50;;;;;;5013174;28;20034;-93
2023/12/31 06:11:39;;;;;;;9.50;2.60;;;21.30;69.20;;;;;;5013047;28;20029;-84
2023/12/31 06:14:07;;;;;;;8.07;2.08;;;21.30;69.20;;;;;;5011175;28;20057;-90
2023/12/31 06:16:35;;;;;;;8.00;1.92;;;21.30;69.10;;;;;;5014033;28;20101;-90
2023/12/31 06:19:02;;;;;;;8.75;2.40;;;21.30;69.30;;;;;;5013773;28;20026;-84
2023/12/31 06:21:30;;;;;;;11.38;2.80;;;21.30;69.20;;;;;;5014217;28;20025;-86
2023/12/31 06:23:57;;;;;;;6.68;1.90;;;21.30;68.70;;;;;;5013395;28;20034;-78
2023/12/31 06:26:24;;;;;;;12.48;2.15;;;21.30;68.70;;;;;;5013207;28;20469;-92
2023/12/31 06:28:52;;;;;;;7.80;2.40;;;21.30;69.00;;;;;;5014091;28;20041;-91
2023/12/31 06:31:19;;;;;;;3.88;1.63;;;21.30;68.60;;;;;;5014104;28;20014;-79
2023/12/31 06:33:46;;;;;;;4.88;1.50;;;21.30;68.90;;;;;;5018503;28;20473;-84
2023/12/31 06:36:14;;;;;;;13.13;2.63;;;21.30;69.10;;;;;;5013149;28;20018;-90
2023/12/31 06:38:42;;;;;;;8.85;1.88;;;21.30;68.90;;;;;;5014177;28;20470;-77
2023/12/31 06:41:12;;;;;;;9.20;2.45;;;21.30;68.30;;;;;;5011941;28;20072;-92
2023/12/31 06:43:39;;;;;;;8.07;1.85;;;21.30;68.20;;;;;;5013567;28;20100;-86
2023/12/31 06:46:07;;;;;;;9.38;2.20;;;21.30;68.20;;;;;;5034246;28;20036;-79
2023/12/31 06:48:34;;;;;;;10.20;1.50;;;21.30;68.30;;;;;;5030117;28;20046;-76
2023/12/31 06:51:02;;;;;;;7.63;1.92;;;21.30;68.40;;;;;;5018596;28;20500;-78
2023/12/31 06:53:29;;;;;;;7.47;1.88;;;21.30;68.40;;;;;;5012855;28;20042;-91
2023/12/31 06:55:56;;;;;;;6.25;1.80;;;21.40;68.20;;;;;;5005673;28;20473;-79
2023/12/31 06:58:24;;;;;;;9.15;1.85;;;21.40;68.30;;;;;;5011577;28;20030;-77
2023/12/31 07:00:51;;;;;;;5.38;1.60;;;21.40;68.50;;;;;;5012749;28;20114;-78
2023/12/31 07:03:18;;;;;;;6.68;1.98;;;21.40;68.70;;;;;;5011878;28;20021;-77
2023/12/31 07:05:47;;;;;;;8.23;2.00;;;21.40;68.80;;;;;;5009610;28;20030;-81
2023/12/31 07:08:15;;;;;;;11.43;2.45;;;21.40;68.90;;;;;;5018224;28;20046;-78
2023/12/31 07:10:44;;;;;;;6.88;2.25;;;21.40;69.00;;;;;;5012567;28;20022;-77
2023/12/31 07:13:11;;;;;;;5.00;1.55;;;21.40;69.10;;;;;;5012213;28;20076;-77
2023/12/31 07:15:39;;;;;;;8.77;2.17;;;21.50;69.10;;;;;;5016921;28;20392;-79
2023/12/31 07:18:06;;;;;;;12.27;2.50;;;21.50;69.20;;;;;;5017319;28;20022;-83
2023/12/31 07:20:34;;;;;;;8.48;1.80;;;21.50;69.20;;;;;;5007037;28;20439;-77
2023/12/31 07:23:01;;;;;;;10.43;2.28;;;21.40;69.10;;;;;;5011527;28;20033;-77
2023/12/31 07:25:30;;;;;;;9.10;2.30;;;21.40;68.90;;;;;;5011456;28;20041;-77
2023/12/31 07:27:59;;;;;;;9.20;2.00;;;21.40;69.00;;;;;;5012696;28;20033;-77
2023/12/31 07:30:26;;;;;;;12.30;2.22;;;21.30;69.20;;;;;;5013006;28;20033;-77
2023/12/31 07:32:54;;;;;;;10.02;2.75;;;21.40;69.10;;;;;;5013559;28;20038;-76
2023/12/31 07:35:21;;;;;;;8.18;2.30;;;21.40;69.30;;;;;;5017466;28;20105;-76
2023/12/31 07:37:48;;;;;;;8.48;2.47;;;21.40;69.40;;;;;;5012445;28;20034;-76
2023/12/31 07:40:16;;;;;;;5.80;1.90;;;21.40;69.40;;;;;;5012401;28;20030;-78
2023/12/31 07:42:43;;;;;;;14.10;2.58;;;21.30;69.50;;;;;;5012581;28;20489;-77
2023/12/31 07:45:11;;;;;;;9.82;2.30;;;21.30;69.50;;;;;;5012278;28;20121;-77
2023/12/31 07:47:39;;;;;;;9.30;2.08;;;21.30;69.70;;;;;;5012332;28;20045;-78
2023/12/31 07:50:07;;;;;;;8.27;2.45;;;21.30;69.80;;;;;;5012260;28;20061;-78
2023/12/31 07:52:35;;;;;;;5.15;1.75;;;21.30;70.00;;;;;;5012538;28;20030;-77
2023/12/31 07:55:04;;;;;;;11.35;2.75;;;21.30;70.20;;;;;;5010274;28;20618;-77
2023/12/31 07:57:31;;;;;;;10.93;2.55;;;21.30;70.20;;;;;;5018970;28;20057;-77
2023/12/31 07:59:58;;;;;;;11.95;2.58;;;21.30;70.30;;;;;;5035435;28;20025;-85
2023/12/31 08:02:26;;;;;;;5.90;1.70;;;21.30;70.40;;;;;;4996083;28;20030;-77
2023/12/31 08:04:54;;;;;;;5.97;1.95;;;21.30;70.50;;;;;;5004923;28;20087;-78
2023/12/31 08:07:21;;;;;;;9.18;2.38;;;21.30;70.50;;;;;;5016479;28;20056;-88
2023/12/31 08:09:49;;;;;;;8.65;2.30;;;21.30;70.50;;;;;;5031213;28;20032;-77
2023/12/31 08:12:16;;;;;;;12.25;2.70;;;21.30;70.50;;;;;;5034403;28;20435;-79
2023/12/31 08:14:43;;;;;;;9.55;2.28;;;21.20;70.40;;;;;;5015392;28;20050;-77
2023/12/31 08:17:11;;;;;;;10.73;2.50;;;21.20;70.40;;;;;;5015291;28;20084;-78
2023/12/31 08:19:38;;;;;;;9.50;2.83;;;21.20;70.70;;;;;;5013692;28;20053;-78
2023/12/31 08:22:05;;;;;;;7.68;2.42;;;21.30;70.50;;;;;;5015016;28;20470;-78
2023/12/31 08:24:33;;;;;;;5.72;2.20;;;21.20;70.50;;;;;;5014953;28;20397;-78
2023/12/31 08:27:00;;;;;;;8.75;2.28;;;21.30;71.00;;;;;;5015377;28;20030;-83
2023/12/31 08:29:28;;;;;;;4.72;1.92;;;21.20;71.10;;;;;;5015450;28;20109;-80
2023/12/31 08:31:55;;;;;;;6.65;2.10;;;21.20;71.90;;;;;;5013959;28;20022;-77
2023/12/31 08:34:22;;;;;;;4.78;1.50;;;21.30;71.90;;;;;;5016672;28;20117;-90
2023/12/31 08:36:50;;;;;;;10.63;2.38;;;21.30;72.00;;;;;;5015171;28;20434;-79
2023/12/31 08:39:17;;;;;;;11.35;2.50;;;21.30;71.80;;;;;;5015398;28;20030;-77
2023/12/31 08:41:45;;;;;;;7.90;2.40;;;21.30;71.20;;;;;;5015163;28;20100;-77
2023/12/31 08:44:12;;;;;;;10.70;2.38;;;21.30;71.10;;;;;;5019320;28;20017;-78
2023/12/31 08:46:39;;;;;;;14.77;2.33;;;21.30;71.00;;;;;;5023257;28;20029;-79
2023/12/31 08:49:07;;;;;;;6.20;2.00;;;21.20;70.60;;;;;;5014143;28;20038;-77
2023/12/31 08:51:34;;;;;;;9.27;2.15;;;21.20;70.50;;;;;;5014850;28;20101;-81
2023/12/31 08:54:02;;;;;;;4.57;2.55;;;21.20;70.60;;;;;;5014809;28;20030;-75
2023/12/31 08:56:30;;;;;;;13.45;4.63;;;21.20;70.50;;;;;;5014680;28;20038;-77
2023/12/31 08:58:57;;;;;;;8.73;3.80;;;21.20;70.50;;;;;;5013243;28;20404;-77
2023/12/31 09:01:24;;;;;;;9.35;2.50;;;21.20;70.30;;;;;;5013414;28;20553;-76
2023/12/31 09:03:52;;;;;;;5.75;2.20;;;21.20;70.30;;;;;;5005025;28;20124;-76
2023/12/31 09:06:19;;;;;;;7.97;2.10;;;21.20;70.40;;;;;;5031247;28;20041;-77
2023/12/31 09:08:47;;;;;;;8.55;1.70;;;21.20;69.80;;;;;;5018353;28;20038;-76
2023/12/31 09:11:15;;;;;;;5.82;1.73;;;21.10;69.50;;;;;;5013827;28;20044;-77
2023/12/31 09:13:43;;;;;;;10.93;2.28;;;21.20;69.60;;;;;;5014164;28;20108;-77
2023/12/31 09:16:10;;;;;;;8.43;1.70;;;21.10;69.30;;;;;;5014124;28;20103;-76
2023/12/31 09:18:37;;;;;;;8.70;1.65;;;21.20;69.20;;;;;;5013124;28;20050;-77
2023/12/31 09:21:05;;;;;;;4.38;1.35;;;21.10;69.10;;;;;;5013882;28;20416;-88
2023/12/31 09:23:33;;;;;;;4.55;1.33;;;21.20;69.20;;;;;;5027801;28;20042;-76
2023/12/31 09:26:03;;;;;;;6.43;1.95;;;21.10;69.20;;;;;;5030890;28;20029;-76
2023/12/31 09:28:30;;;;;;;4.35;1.50;;;21.10;69.30;;;;;;5033794;28;20034;-80
2023/12/31 09:30:58;;;;;;;5.40;1.30;;;21.10;69.20;;;;;;5033769;28;20029;-77
2023/12/31 09:33:25;;;;;;;3.85;1.65;;;21.10;69.20;;;;;;5032640;28;20029;-76
2023/12/31 09:35:53;;;;;;;6.22;2.20;;;21.10;69.00;;;;;;5018453;28;20034;-76
2023/12/31 09:38:20;;;;;;;5.82;1.75;;;21.10;69.00;;;;;;5026994;28;20064;-77
2023/12/31 09:40:48;;;;;;;5.28;1.55;;;21.10;68.50;;;;;;5030814;28;20037;-77
2023/12/31 09:43:21;;;;;;;4.97;1.50;;;21.10;68.70;;;;;;5022902;28;20036;-77
2023/12/31 09:45:49;;;;;;;5.78;1.50;;;21.10;68.70;;;;;;5023355;28;20021;-77
2023/12/31 09:48:21;;;;;;;3.03;1.05;;;21.10;68.20;;;;;;5033741;28;20041;-77
2023/12/31 09:50:48;;;;;;;4.03;1.48;;;21.10;68.50;;;;;;5029471;28;20048;-78
2023/12/31 09:53:17;;;;;;;5.57;1.40;;;21.10;68.50;;;;;;5012369;28;20033;-77
2023/12/31 09:55:45;;;;;;;1.65;1.02;;;21.10;68.40;;;;;;5013686;28;20057;-77
2023/12/31 09:58:14;;;;;;;3.58;1.15;;;21.10;68.40;;;;;;5014121;28;20465;-84
2023/12/31 10:00:45;;;;;;;5.90;1.40;;;21.10;68.50;;;;;;5014300;28;20462;-78
2023/12/31 10:03:13;;;;;;;3.25;1.15;;;21.10;69.00;;;;;;5012502;28;20472;-90
2023/12/31 10:05:43;;;;;;;4.13;1.20;;;21.10;69.20;;;;;;5026781;28;20033;-92
2023/12/31 10:08:11;;;;;;;3.88;1.13;;;21.20;69.40;;;;;;5034096;28;20049;-91
2023/12/31 10:10:43;;;;;;;5.47;1.38;;;21.10;69.60;;;;;;4993583;28;20053;-85
2023/12/31 10:13:17;;;;;;;4.53;1.40;;;21.10;69.50;;;;;;5003820;28;20033;-92
2023/12/31 10:15:48;;;;;;;6.90;1.50;;;21.20;70.40;;;;;;5027191;28;20029;-88
2023/12/31 10:18:17;;;;;;;5.32;1.42;;;21.20;70.70;;;;;;5019431;28;20025;-89
2023/12/31 10:20:44;;;;;;;4.38;1.38;;;21.20;70.40;;;;;;5013900;28;20022;-89
2023/12/31 10:23:14;;;;;;;2.85;1.58;;;21.10;70.20;;;;;;5013998;28;20029;-83
2023/12/31 10:25:42;;;;;;;5.18;1.38;;;21.10;70.40;;;;;;5012966;28;20022;-91
2023/12/31 10:28:09;;;;;;;6.78;1.67;;;21.10;70.30;;;;;;5029339;28;20034;-90
2023/12/31 10:30:41;;;;;;;5.72;1.40;;;21.10;70.20;;;;;;5032994;28;20029;-84
2023/12/31 10:33:10;;;;;;;4.93;1.33;;;21.10;70.50;;;;;;5038510;28;20044;-91
2023/12/31 10:35:38;;;;;;;4.22;1.48;;;21.00;70.20;;;;;;5034520;28;20116;-91
2023/12/31 10:38:06;;;;;;;4.82;1.40;;;21.10;70.10;;;;;;5033543;28;20029;-91
2023/12/31 10:40:34;;;;;;;6.00;1.65;;;21.10;70.20;;;;;;5033202;28;20029;-91
2023/12/31 10:43:07;;;;;;;3.45;1.10;;;21.10;70.20;;;;;;5028135;28;20489;-82
2023/12/31 10:45:36;;;;;;;5.53;1.40;;;21.10;70.40;;;;;;4994172;28;20022;-90
2023/12/31 10:48:07;;;;;;;6.47;1.70;;;21.10;70.60;;;;;;4993637;28;20066;-87
2023/12/31 10:50:39;;;;;;;4.38;1.67;;;21.10;70.40;;;;;;4994789;28;20034;-91
2023/12/31 10:53:12;;;;;;;6.32;1.58;;;21.10;70.40;;;;;;5021099;28;20070;-90
2023/12/31 10:55:42;;;;;;;3.97;1.30;;;21.10;70.50;;;;;;5027975;28;20296;-88
2023/12/31 10:58:09;;;;;;;5.78;1.52;;;21.10;70.50;;;;;;5033169;28;20129;-81
2023/12/31 11:00:37;;;;;;;5.90;2.08;;;21.10;70.50;;;;;;5016156;28;20041;-76
2023/12/31 11:03:10;;;;;;;4.30;1.77;;;21.00;70.40;;;;;;5012687;28;20500;-81
2023/12/31 11:05:39;;;;;;;3.70;1.88;;;21.00;70.30;;;;;;5021510;28;20029;-77
2023/12/31 11:08:08;;;;;;;8.07;2.72;;;21.00;70.30;;;;;;5020418;28;20497;-77
2023/12/31 11:10:36;;;;;;;9.15;4.05;;;21.10;70.30;;;;;;5012412;28;20127;-77
2023/12/31 11:13:04;;;;;;;7.45;3.10;;;21.00;70.40;;;;;;5012842;28;20034;-87
2023/12/31 11:15:33;;;;;;;4.35;2.00;;;21.00;70.40;;;;;;5012712;28;20105;-77
2023/12/31 11:18:25;;;;;;;8.18;2.20;;;21.00;70.40;;;;;;5015692;28;20485;-76
2023/12/31 11:21:20;;;;;;;6.13;1.92;;;21.00;70.30;;;;;;5012664;28;20057;-77
2023/12/31 11:24:14;;;;;;;10.65;2.78;;;21.00;70.30;;;;;;5012414;28;20075;-77
2023/12/31 11:26:42;;;;;;;5.65;2.25;;;20.90;70.50;;;;;;5012888;28;20073;-77
2023/12/31 11:29:12;;;;;;;7.75;2.63;;;21.00;71.40;;;;;;5014237;28;20478;-77
2023/12/31 11:31:42;;;;;;;6.72;2.70;;;21.00;70.90;;;;;;5015469;28;20377;-77
2023/12/31 11:34:10;;;;;;;5.75;2.50;;;21.00;71.50;;;;;;5004859;28;20029;-77
2023/12/31 11:36:38;;;;;;;6.18;3.00;;;21.00;71.60;;;;;;5016242;28;20056;-77
2023/12/31 11:39:14;;;;;;;7.20;2.55;;;20.90;71.50;;;;;;5018640;28;20109;-77
2023/12/31 11:41:49;;;;;;;6.28;2.33;;;20.90;71.60;;;;;;5015746;28;20067;-77
2023/12/31 11:44:43;;;;;;;5.60;2.10;;;20.90;71.70;;;;;;5015956;28;20026;-77
2023/12/31 11:47:42;;;;;;;8.45;2.13;;;20.90;71.70;;;;;;5015991;28;20105;-78
2023/12/31 11:50:10;;;;;;;7.38;2.03;;;20.90;72.10;;;;;;5011250;28;20048;-87
2023/12/31 11:52:43;;;;;;;6.18;1.70;;;20.90;72.20;;;;;;5016159;28;20033;-77
2023/12/31 11:55:17;;;;;;;8.32;1.80;;;20.90;72.20;;;;;;5015561;28;20037;-77
2023/12/31 11:57:54;;;;;;;5.70;1.63;;;20.90;72.10;;;;;;4996990;28;20026;-84
2023/12/31 12:00:21;;;;;;;6.93;1.50;;;20.90;72.30;;;;;;5003418;28;20026;-91
2023/12/31 12:02:51;;;;;;;3.28;1.52;;;20.90;72.40;;;;;;5017301;28;20517;-83
2023/12/31 12:05:19;;;;;;;6.68;1.70;;;20.90;72.40;;;;;;5013977;28;20044;-90
2023/12/31 12:07:46;;;;;;;6.78;1.40;;;20.90;72.60;;;;;;5016338;28;20069;-91
2023/12/31 12:10:15;;;;;;;7.93;1.67;;;21.00;72.80;;;;;;5017428;28;20358;-89
2023/12/31 12:12:43;;;;;;;6.97;1.60;;;21.00;73.10;;;;;;5017641;28;20038;-91
2023/12/31 12:15:10;;;;;;;7.93;1.80;;;21.00;73.60;;;;;;5025550;28;20018;-90
2023/12/31 12:17:38;;;;;;;6.35;1.80;;;21.00;73.60;;;;;;5034972;28;20090;-83
2023/12/31 12:20:08;;;;;;;7.07;1.77;;;21.00;73.90;;;;;;5036091;28;20041;-77
2023/12/31 12:22:35;;;;;;;3.42;1.30;;;21.00;73.80;;;;;;4995989;28;20108;-77
2023/12/31 12:25:04;;;;;;;7.40;1.33;;;21.00;73.80;;;;;;5004130;28;20030;-77
2023/12/31 12:27:35;;;;;;;7.25;2.00;;;20.90;73.70;;;;;;5015466;28;20034;-77
2023/12/31 12:30:02;;;;;;;5.50;1.55;;;21.00;73.80;;;;;;5015419;28;20360;-77
2023/12/31 12:32:30;;;;;;;4.68;1.15;;;21.00;73.80;;;;;;5010736;28;20043;-77
2023/12/31 12:35:01;;;;;;;4.95;1.40;;;21.00;73.90;;;;;;5021273;28;20033;-77
2023/12/31 12:37:29;;;;;;;3.60;1.35;;;21.00;73.70;;;;;;5014489;28;20037;-81
2023/12/31 12:39:56;;;;;;;3.80;1.20;;;21.00;73.70;;;;;;5014649;28;20101;-78
2023/12/31 12:42:27;;;;;;;2.40;1.10;;;21.00;73.60;;;;;;5015077;28;20026;-77
2023/12/31 12:44:57;;;;;;;3.33;1.33;;;21.00;73.70;;;;;;5014927;28;20389;-77
2023/12/31 12:47:27;;;;;;;4.50;1.33;;;21.00;74.00;;;;;;5023583;28;20037;-77
2023/12/31 12:49:54;;;;;;;4.40;1.13;;;21.00;73.70;;;;;;5017322;28;20029;-76